createdAt,value
2018-08-16T00:01:29.568Z,24.32
2018-08-16T00:06:33.242Z,24.31
2018-08-16T00:11:37.581Z,24.28
2018-08-16T00:16:41.133Z,24.22
2018-08-16T00:21:44.677Z,24.25
2018-08-16T00:26:48.491Z,24.21
2018-08-16T00:31:52.173Z,24.19
2018-08-16T00:36:56.113Z,24.20
2018-08-16T00:41:59.944Z,24.16
2018-08-16T00:47:04.022Z,24.13
2018-08-16T00:52:08.353Z,24.10
2018-08-16T00:57:12.214Z,24.09
2018-08-16T01:02:15.828Z,24.07
2018-08-16T01:07:20.111Z,24.04
2018-08-16T01:12:23.793Z,24.02
2018-08-16T01:17:27.256Z,24.00
2018-08-16T01:22:31.021Z,23.99
2018-08-16T01:27:34.695Z,23.96
2018-08-16T01:32:38.213Z,23.93
2018-08-16T01:37:41.773Z,23.93
2018-08-16T01:42:45.376Z,23.89
2018-08-16T01:47:48.885Z,23.88
2018-08-16T01:52:52.636Z,23.92
2018-08-16T01:57:56.157Z,23.89
2018-08-16T02:02:59.662Z,23.91
2018-08-16T02:08:03.264Z,23.90
2018-08-16T02:13:06.907Z,23.89
2018-08-16T02:18:10.472Z,23.86
2018-08-16T02:23:14.117Z,23.85
2018-08-16T02:28:17.576Z,23.86
2018-08-16T02:33:21.111Z,23.87
2018-08-16T02:38:24.618Z,23.84
2018-08-16T02:43:28.080Z,23.84
2018-08-16T02:48:31.923Z,23.79
2018-08-16T02:53:35.380Z,23.75
2018-08-16T02:58:38.818Z,23.77
2018-08-16T03:03:42.338Z,23.76
2018-08-16T03:08:45.850Z,23.74
2018-08-16T03:13:49.649Z,23.73
2018-08-16T03:18:53.296Z,23.68
2018-08-16T03:23:57.205Z,23.69
2018-08-16T03:29:00.629Z,23.63
2018-08-16T03:34:04.251Z,23.63
2018-08-16T03:39:08.942Z,23.60
2018-08-16T03:44:12.506Z,23.59
2018-08-16T03:49:16.033Z,23.51
2018-08-16T03:54:19.472Z,23.44
2018-08-16T03:59:22.970Z,23.48
2018-08-16T04:04:26.471Z,23.37
2018-08-16T04:09:30.137Z,23.34
2018-08-16T04:14:33.704Z,22.74
2018-08-16T04:19:37.630Z,22.50
2018-08-16T04:24:41.085Z,22.34
2018-08-16T04:29:44.609Z,22.21
2018-08-16T04:34:48.100Z,22.09
2018-08-16T04:39:51.661Z,22.06
2018-08-16T04:44:55.169Z,22.02
2018-08-16T04:49:58.714Z,22.03
2018-08-16T04:55:02.215Z,21.96
2018-08-16T05:00:07.669Z,21.92
2018-08-16T05:05:11.148Z,21.87
2018-08-16T05:10:14.708Z,21.84
2018-08-16T05:15:18.129Z,21.83
2018-08-16T05:20:21.829Z,21.86
2018-08-16T05:25:25.909Z,21.82
2018-08-16T05:30:29.368Z,21.86
2018-08-16T05:35:33.088Z,21.90
2018-08-16T05:40:36.832Z,21.95
2018-08-16T05:45:40.273Z,21.98
2018-08-16T05:50:44.127Z,22.09
2018-08-16T05:55:47.574Z,22.13
2018-08-16T06:00:51.042Z,22.19
2018-08-16T06:05:54.571Z,22.21
2018-08-16T06:10:58.117Z,22.20
2018-08-16T06:16:01.946Z,22.29
2018-08-16T06:21:05.593Z,22.45
2018-08-16T06:26:09.141Z,22.52
2018-08-16T06:31:12.869Z,22.55
2018-08-16T06:36:16.925Z,22.63
2018-08-16T06:41:20.453Z,22.77
2018-08-16T06:46:24.198Z,22.84
2018-08-16T06:51:27.688Z,22.94
2018-08-16T06:56:31.202Z,23.01
2018-08-16T07:01:34.826Z,23.00
2018-08-16T07:06:38.544Z,23.11
2018-08-16T07:11:42.381Z,23.19
2018-08-16T07:16:45.859Z,23.22
2018-08-16T07:21:49.393Z,23.20
2018-08-16T07:26:52.949Z,23.20
2018-08-16T07:31:56.419Z,23.33
2018-08-16T07:36:59.972Z,23.34
2018-08-16T07:42:03.537Z,23.37
2018-08-16T07:47:07.115Z,23.38
2018-08-16T07:52:10.766Z,23.52
2018-08-16T07:57:14.121Z,23.52
2018-08-16T08:02:17.909Z,23.57
2018-08-16T08:07:21.437Z,23.57
2018-08-16T08:12:24.960Z,23.62
2018-08-16T08:17:28.648Z,23.67
2018-08-16T08:22:32.164Z,23.71
2018-08-16T08:27:36.034Z,23.74
2018-08-16T08:32:40.057Z,23.78
2018-08-16T08:37:54.658Z,23.82
2018-08-16T08:42:58.328Z,23.85
2018-08-16T08:48:01.797Z,23.85
2018-08-16T08:53:16.641Z,23.86
2018-08-16T08:58:31.399Z,23.90
2018-08-16T09:03:34.893Z,23.92
2018-08-16T09:08:38.365Z,23.97
2018-08-16T09:13:54.445Z,24.00
2018-08-16T09:18:58.431Z,24.01
2018-08-16T09:24:02.138Z,24.06
2018-08-16T09:31:33.563Z,24.08
2018-08-16T09:36:37.044Z,24.11
2018-08-16T09:41:40.544Z,24.14
2018-08-16T09:47:02.748Z,24.17
2018-08-16T09:52:07.377Z,24.21
2018-08-16T09:57:12.055Z,24.25
2018-08-16T10:02:17.127Z,24.32
2018-08-16T10:07:20.709Z,24.35
2018-08-16T10:12:24.224Z,24.37
2018-08-16T10:17:27.712Z,24.40
2018-08-16T10:22:31.277Z,24.45
2018-08-16T10:27:34.786Z,24.47
2018-08-16T10:32:38.996Z,24.50
2018-08-16T10:37:42.480Z,24.52
2018-08-16T10:42:46.112Z,24.55
2018-08-16T10:47:49.715Z,24.58
2018-08-16T10:52:53.333Z,24.60
2018-08-16T10:57:56.893Z,24.63
2018-08-16T11:03:00.409Z,24.67
2018-08-16T11:08:03.905Z,24.69
2018-08-16T11:13:07.481Z,24.72
2018-08-16T11:18:11.458Z,24.73
2018-08-16T11:23:15.267Z,24.76
2018-08-16T11:28:18.984Z,24.78
2018-08-16T11:33:22.604Z,24.81
2018-08-16T11:38:26.127Z,24.82
2018-08-16T11:43:29.625Z,24.86
2018-08-16T11:48:33.040Z,24.88
2018-08-16T11:53:36.502Z,24.90
2018-08-16T11:58:40.249Z,24.92
2018-08-16T12:03:44.641Z,24.94
2018-08-16T12:08:48.433Z,24.96
2018-08-16T12:13:52.037Z,24.98
2018-08-16T12:18:55.680Z,25.01
2018-08-16T12:23:59.357Z,25.01
2018-08-16T12:29:03.022Z,25.04
2018-08-16T12:34:06.946Z,25.05
2018-08-16T12:39:10.559Z,25.07
2018-08-16T12:44:14.178Z,25.08
2018-08-16T12:49:17.741Z,25.09
2018-08-16T12:54:21.578Z,25.10
2018-08-16T12:59:25.225Z,25.13
2018-08-16T13:04:29.181Z,25.14
2018-08-16T13:09:32.797Z,25.07
2018-08-16T13:14:36.305Z,25.17
2018-08-16T13:19:39.836Z,25.13
2018-08-16T13:24:43.425Z,25.14
2018-08-16T13:29:46.877Z,25.12
2018-08-16T13:34:50.659Z,25.13
2018-08-16T13:39:54.092Z,25.13
2018-08-16T13:44:57.638Z,25.16
2018-08-16T13:50:01.304Z,25.22
2018-08-16T13:55:05.099Z,25.17
2018-08-16T14:00:09.153Z,25.26
2018-08-16T14:05:12.685Z,25.28
2018-08-16T14:10:16.285Z,25.29
2018-08-16T14:15:19.766Z,25.28
2018-08-16T14:20:23.249Z,25.29
2018-08-16T14:25:26.703Z,25.30
2018-08-16T14:30:30.540Z,25.27
2018-08-16T14:35:34.680Z,25.28
2018-08-16T14:40:38.192Z,25.30
2018-08-16T14:45:41.693Z,25.33
2018-08-16T14:50:45.237Z,25.33
2018-08-16T14:55:48.720Z,25.39
2018-08-16T15:00:52.396Z,25.45
2018-08-16T15:05:56.072Z,25.47
2018-08-16T15:10:59.619Z,25.50
2018-08-16T15:16:03.089Z,25.53
2018-08-16T15:21:06.833Z,25.56
2018-08-16T15:26:10.394Z,25.57
2018-08-16T15:31:13.849Z,25.58
2018-08-16T15:36:17.397Z,25.60
2018-08-16T15:41:21.160Z,25.62
2018-08-16T15:46:24.892Z,25.59
2018-08-16T15:51:28.397Z,25.61
2018-08-16T15:56:31.864Z,25.61
2018-08-16T16:01:35.345Z,25.59
2018-08-16T16:06:38.862Z,25.59
2018-08-16T16:11:42.434Z,25.59
2018-08-16T16:16:46.037Z,25.58
2018-08-16T16:21:49.669Z,25.59
2018-08-16T16:26:53.242Z,25.57
2018-08-16T16:31:56.828Z,25.59
2018-08-16T16:37:00.405Z,25.65
2018-08-16T16:42:03.991Z,25.66
2018-08-16T16:47:08.257Z,25.68
2018-08-16T16:52:11.858Z,25.69
2018-08-16T16:57:15.553Z,25.72
2018-08-16T17:02:19.387Z,25.71
2018-08-16T17:07:23.338Z,25.66
2018-08-16T17:12:26.897Z,25.61
2018-08-16T17:17:30.530Z,25.59
2018-08-16T17:22:34.813Z,25.59
2018-08-16T17:27:38.251Z,25.59
2018-08-16T17:32:41.941Z,25.58
2018-08-16T17:37:45.480Z,25.60
2018-08-16T17:42:49.005Z,25.62
2018-08-16T17:47:52.505Z,25.66
2018-08-16T17:52:55.968Z,25.70
2018-08-16T17:57:59.477Z,25.74
2018-08-16T18:03:03.103Z,25.78
2018-08-16T18:08:06.616Z,25.78
2018-08-16T18:13:10.137Z,25.77
2018-08-16T18:18:13.662Z,25.79
2018-08-16T18:23:17.201Z,25.78
2018-08-16T18:28:20.733Z,25.78
2018-08-16T18:38:42.518Z,25.82
2018-08-16T18:43:46.316Z,25.82
2018-08-16T18:48:49.865Z,25.81
2018-08-16T18:53:53.400Z,25.84
2018-08-16T18:58:56.989Z,25.85
2018-08-16T19:04:00.440Z,25.82
2018-08-16T19:09:04.766Z,25.80
2018-08-16T19:14:08.317Z,25.89
2018-08-16T19:19:11.806Z,25.91
2018-08-16T19:24:16.694Z,25.94
2018-08-16T19:29:20.312Z,25.97
2018-08-16T19:34:23.825Z,26.00
2018-08-16T19:39:27.601Z,26.02
2018-08-16T19:44:31.319Z,26.01
2018-08-16T19:49:34.784Z,26.00
2018-08-16T19:54:38.276Z,26.01
2018-08-16T19:59:42.137Z,25.98
2018-08-16T20:04:46.214Z,25.96
2018-08-16T20:09:51.023Z,25.94
2018-08-16T20:14:54.521Z,25.91
2018-08-16T20:19:58.048Z,25.93
2018-08-16T20:25:01.712Z,25.91
2018-08-16T20:30:06.091Z,25.87
2018-08-16T20:35:10.066Z,25.88
2018-08-16T20:40:13.585Z,25.87
2018-08-16T20:45:17.124Z,25.84
2018-08-16T20:50:20.999Z,25.85
2018-08-16T20:55:24.643Z,25.82
2018-08-16T21:00:28.343Z,25.80
2018-08-16T21:05:31.774Z,25.80
2018-08-16T21:10:35.865Z,25.78
2018-08-16T21:15:39.629Z,25.77
2018-08-16T21:20:44.108Z,25.76
2018-08-16T21:25:47.783Z,25.73
2018-08-16T21:30:51.454Z,25.73
2018-08-16T21:35:55.001Z,25.70
2018-08-16T21:40:59.243Z,25.69
2018-08-16T21:46:02.805Z,25.70
2018-08-16T21:51:06.430Z,25.68
2018-08-16T21:56:10.133Z,25.67
2018-08-16T22:01:14.267Z,25.65
2018-08-16T22:06:29.073Z,25.64
2018-08-16T22:11:32.673Z,25.64
2018-08-16T22:16:36.468Z,25.63
2018-08-16T22:21:40.247Z,25.62
2018-08-16T22:26:43.809Z,25.62
2018-08-16T22:31:47.842Z,25.61
2018-08-16T22:36:52.061Z,25.57
2018-08-16T22:41:55.874Z,25.58
2018-08-16T22:47:00.004Z,25.57
2018-08-16T22:52:03.745Z,25.57
2018-08-16T22:57:07.747Z,25.58
2018-08-16T23:02:11.230Z,25.56
2018-08-16T23:07:14.730Z,25.56
2018-08-16T23:12:18.377Z,25.55
2018-08-16T23:17:21.915Z,25.54
2018-08-16T23:22:25.552Z,25.54
2018-08-16T23:27:29.140Z,25.54
2018-08-16T23:32:32.613Z,25.55
2018-08-16T23:37:36.379Z,25.53
2018-08-16T23:42:40.321Z,25.52
2018-08-16T23:47:53.684Z,25.52
2018-08-16T23:52:57.249Z,25.51
2018-08-16T23:58:00.890Z,25.51
